KH78

Offshore

Offshore, Louisiana, USA
METAR KH78 131815Z 32029KT 12SM DZ OVC008 20/18 A3009 RMK SEAS 4-6
Observed Flight Rules
Nov-13 @ 18:15 UTC (11 hours ago) Instrument Flight Rules
Wind Visibility Clouds Conditions
320° at 29 knots 12 miles
  • Overcast at 800' AGL
  • Drizzle
Temperatures Readings
Current 20°C / 68°F
Dewpoint 18°C / 64°F
Humidity 88%
Altimeter 30.09" Hg
Pressure 1019 hPa
Elevation 43
METAR KH78 131815Z 32029KT 12SM DZ OVC008 20/18 A3009 RMK SEAS 4-6
Observed Flight Rules
Nov-13 @ 18:15 UTC
(11 hours ago)
IFR
Wind Visibility
320° at 29 knots 12 miles
Clouds
  • Overcast at 800' AGL
Conditions
  • Drizzle
Temperature Dewpoint
20°C / 68°F 18°C / 64°F
Humidity Altimeter Pressure
88% 30.09" Hg 1019 hPa